Time;durP1;ratioP1;P1;durP2;ratioP2;P2;SDS_P1;SDS_P2;PMS_P1;PMS_P2;Temp;Humidity;BMP_temperature;BMP_pressure;BME280_temperature;BME280_humidity;BME280_pressure;Samples;Min_cycle;Max_cycle;Signal;HPM_P1;HPM_P2
2024/04/05 00:00:39;;;;;;;;;;;;;;;8.67;57.68;95207.31;4952539;28;19965;-67
2024/04/05 00:03:04;;;;;;;;;;;;;;;8.52;58.40;95215.19;4957110;28;20016;-67
2024/04/05 00:05:29;;;;;;;;;;;;;;;6.75;64.46;95209.63;4954582;28;20395;-67
2024/04/05 00:07:55;;;;;;;;;;;;;;;7.51;62.43;95209.41;4956329;28;19937;-67
2024/04/05 00:10:20;;;;;;;;;;;;;;;7.89;61.78;95202.72;4956731;28;19957;-67
2024/04/05 00:12:46;;;;;;;;;;;;;;;7.92;62.19;95187.28;4957174;28;19926;-67
2024/04/05 00:15:11;;;;;;;;;;;;;;;8.36;60.63;95194.91;4958104;28;19933;-67
2024/04/05 00:17:36;;;;;;;;;;;;;;;8.32;63.83;95193.59;4958232;28;20446;-67
2024/04/05 00:20:02;;;;;;;;;;;;;;;8.63;60.54;95190.91;4957295;28;20166;-67
2024/04/05 00:22:27;;;;;;;;;;;;;;;8.47;60.59;95193.66;4957064;28;19926;-67
2024/04/05 00:24:55;;;;;;;;;;;;;;;8.60;60.39;95182.47;4956461;28;20024;-67
2024/04/05 00:27:20;;;;;;;;;;;;;;;8.63;60.74;95182.09;4956421;28;19961;-67
2024/04/05 00:29:45;;;;;;;;;;;;;;;9.01;59.66;95178.72;4956458;28;20353;-67
2024/04/05 00:32:11;;;;;;;;;;;;;;;8.51;61.09;95174.59;4956838;28;19926;-67
2024/04/05 00:34:36;;;;;;;;;;;;;;;7.92;62.97;95178.50;4954704;28;20395;-67
2024/04/05 00:37:01;;;;;;;;;;;;;;;8.69;61.16;95184.06;4957318;28;19922;-67
2024/04/05 00:39:26;;;;;;;;;;;;;;;8.20;62.32;95187.84;4956253;28;20679;-67
2024/04/05 00:41:52;;;;;;;;;;;;;;;8.99;60.13;95178.91;4956915;28;20075;-67
2024/04/05 00:44:17;;;;;;;;;;;;;;;9.10;59.81;95182.94;4956087;28;19933;-67
2024/04/05 00:46:42;;;;;;;;;;;;;;;8.49;61.82;95187.19;4956765;28;20410;-67
2024/04/05 00:49:08;;;;;;;;;;;;;;;7.51;64.77;95187.38;4956619;28;19918;-67
2024/04/05 00:51:33;;;;;;;;;;;;;;;7.12;65.36;95187.13;4956573;28;19926;-67
2024/04/05 00:53:59;;;;;;;;;;;;;;;8.16;63.07;95187.38;4956174;28;20299;-67
2024/04/05 00:56:24;;;;;;;;;;;;;;;8.23;62.58;95175.06;4957392;28;20350;-67
2024/04/05 00:58:50;;;;;;;;;;;;;;;8.25;63.39;95180.19;4974506;28;19930;-67
2024/04/05 01:01:15;;;;;;;;;;;;;;;7.44;64.65;95178.47;4960172;28;20034;-67
2024/04/05 01:03:40;;;;;;;;;;;;;;;8.42;62.32;95170.31;4958234;28;19922;-67
2024/04/05 01:06:06;;;;;;;;;;;;;;;8.53;61.93;95169.06;4960290;28;20017;-67
2024/04/05 01:08:31;;;;;;;;;;;;;;;8.32;61.62;95173.19;4958993;28;19953;-67
2024/04/05 01:10:56;;;;;;;;;;;;;;;8.63;61.38;95182.09;4960583;28;20243;-67
2024/04/05 01:13:22;;;;;;;;;;;;;;;8.55;61.79;95173.22;4960984;28;20061;-67
2024/04/05 01:15:47;;;;;;;;;;;;;;;7.70;64.39;95180.06;4960851;28;19930;-67
2024/04/05 01:18:12;;;;;;;;;;;;;;;8.60;61.55;95177.19;4960112;28;19926;-67
2024/04/05 01:20:38;;;;;;;;;;;;;;;8.89;60.68;95172.97;4960501;28;20152;-67
2024/04/05 01:23:03;;;;;;;;;;;;;;;9.16;59.57;95171.63;4960435;28;19926;-67
2024/04/05 01:25:29;;;;;;;;;;;;;;;9.30;59.59;95174.47;4960241;28;20003;-67
2024/04/05 01:27:55;;;;;;;;;;;;;;;8.97;59.75;95170.28;4960086;28;19934;-67
2024/04/05 01:30:20;;;;;;;;;;;;;;;9.08;60.26;95169.84;4960504;28;19929;-67
2024/04/05 01:33:00;;;;;;;;;;;;;;;9.13;59.01;95163.16;4959636;28;19926;-67
2024/04/05 01:35:29;;;;;;;;;;;;;;;9.46;59.00;95173.50;4959590;28;20621;-67
2024/04/05 01:37:56;;;;;;;;;;;;;;;9.58;58.74;95173.84;4958783;28;20215;-67
2024/04/05 01:40:22;;;;;;;;;;;;;;;9.36;59.58;95167.63;4958848;28;19922;-67
2024/04/05 01:42:47;;;;;;;;;;;;;;;9.42;59.28;95170.38;4959770;28;19926;-67
2024/04/05 01:45:12;;;;;;;;;;;;;;;9.12;59.75;95159.72;4957668;28;19945;-67
2024/04/05 01:47:38;;;;;;;;;;;;;;;9.23;59.92;95166.41;4959648;28;20580;-67
2024/04/05 01:50:03;;;;;;;;;;;;;;;9.10;60.45;95158.22;4960401;28;19996;-67
2024/04/05 01:52:28;;;;;;;;;;;;;;;9.24;60.04;95168.06;4959729;28;20340;-67
2024/04/05 01:54:54;;;;;;;;;;;;;;;9.37;59.45;95169.25;4959856;28;20443;-67
2024/04/05 01:57:19;;;;;;;;;;;;;;;9.09;59.63;95168.03;4960430;28;20074;-67
2024/04/05 01:59:51;;;;;;;;;;;;;;;9.32;59.72;95175.94;4954480;28;20451;-67
2024/04/05 02:02:16;;;;;;;;;;;;;;;9.59;58.98;95171.03;4960392;28;20215;-67
2024/04/05 02:04:42;;;;;;;;;;;;;;;9.68;58.46;95168.28;4960361;28;19980;-67
2024/04/05 02:07:07;;;;;;;;;;;;;;;9.68;58.48;95161.13;4959447;28;20365;-67
2024/04/05 02:09:32;;;;;;;;;;;;;;;9.88;57.95;95165.06;4960344;28;19929;-67
2024/04/05 02:11:58;;;;;;;;;;;;;;;9.85;57.70;95169.75;4959900;28;20441;-67
2024/04/05 02:14:24;;;;;;;;;;;;;;;9.85;57.58;95166.25;4960428;28;19926;-67
2024/04/05 02:16:49;;;;;;;;;;;;;;;9.58;58.48;95164.06;4959909;28;19938;-67
2024/04/05 02:19:15;;;;;;;;;;;;;;;9.40;58.41;95161.75;4959377;28;20001;-67
2024/04/05 02:21:40;;;;;;;;;;;;;;;8.99;58.92;95157.66;4956898;28;19961;-67
2024/04/05 02:24:05;;;;;;;;;;;;;;;9.29;59.16;95152.38;4960057;28;19933;-67
2024/04/05 02:26:31;;;;;;;;;;;;;;;9.43;58.08;95168.53;4958805;28;20403;-67
2024/04/05 02:28:56;;;;;;;;;;;;;;;8.15;61.43;95193.66;4959975;28;20102;-67
2024/04/05 02:31:22;;;;;;;;;;;;;;;7.81;65.22;95192.97;4959125;28;19992;-67
2024/04/05 02:33:47;;;;;;;;;;;;;;;8.43;62.88;95186.06;4960121;28;20234;-67
2024/04/05 02:36:12;;;;;;;;;;;;;;;8.61;61.73;95192.94;4959299;28;19926;-67
2024/04/05 02:38:37;;;;;;;;;;;;;;;9.11;60.32;95189.91;4959569;28;20617;-67
2024/04/05 02:41:07;;;;;;;;;;;;;;;9.42;59.37;95194.28;4959368;28;20387;-67
2024/04/05 02:43:32;;;;;;;;;;;;;;;9.35;59.07;95203.97;4963063;28;19925;-67
2024/04/05 02:45:58;;;;;;;;;;;;;;;9.26;59.46;95200.59;4959365;28;20138;-66
2024/04/05 02:48:23;;;;;;;;;;;;;;;8.41;63.41;95206.63;4963153;28;19930;-67
2024/04/05 02:50:48;;;;;;;;;;;;;;;9.22;60.51;95203.78;4960204;28;20399;-67
2024/04/05 02:53:13;;;;;;;;;;;;;;;9.36;59.19;95204.81;4957041;28;19977;-67
2024/04/05 02:55:39;;;;;;;;;;;;;;;9.49;59.34;95197.06;4958713;28;19930;-67
2024/04/05 02:58:04;;;;;;;;;;;;;;;9.31;59.91;95197.38;4951507;28;20017;-67
2024/04/05 03:00:29;;;;;;;;;;;;;;;9.67;58.85;95206.50;4958167;28;20306;-67
2024/04/05 03:02:55;;;;;;;;;;;;;;;9.18;60.58;95193.50;4956892;28;19925;-67
2024/04/05 03:05:20;;;;;;;;;;;;;;;8.52;62.68;95193.97;4959154;28;20386;-67
2024/04/05 03:07:46;;;;;;;;;;;;;;;9.02;61.30;95183.88;4956570;28;20380;-67
2024/04/05 03:10:11;;;;;;;;;;;;;;;9.18;60.67;95190.84;4956909;28;20351;-67
2024/04/05 03:12:36;;;;;;;;;;;;;;;9.68;58.94;95192.19;4955467;28;20021;-67
2024/04/05 03:15:01;;;;;;;;;;;;;;;9.69;58.73;95194.66;4956591;28;19926;-67
2024/04/05 03:17:27;;;;;;;;;;;;;;;9.72;58.38;95186.34;4956576;28;19941;-67
2024/04/05 03:19:53;;;;;;;;;;;;;;;8.33;62.13;95200.53;4955171;28;20627;-67
2024/04/05 03:22:18;;;;;;;;;;;;;;;9.22;60.17;95203.78;4956607;28;19941;-67
2024/04/05 03:24:43;;;;;;;;;;;;;;;9.26;60.05;95205.91;4955224;28;19961;-67
2024/04/05 03:27:08;;;;;;;;;;;;;;;9.52;59.15;95199.31;4957756;28;19981;-67
2024/04/05 03:29:34;;;;;;;;;;;;;;;8.93;60.72;95203.47;4958360;28;19917;-67
2024/04/05 03:31:59;;;;;;;;;;;;;;;9.15;60.72;95201.81;4958085;28;19940;-67
2024/04/05 03:34:24;;;;;;;;;;;;;;;9.37;59.71;95209.94;4958524;28;19932;-67
2024/04/05 03:36:50;;;;;;;;;;;;;;;9.28;59.93;95219.00;4958536;28;20017;-67
2024/04/05 03:39:15;;;;;;;;;;;;;;;8.84;60.84;95229.25;4958366;28;19934;-67
2024/04/05 03:41:40;;;;;;;;;;;;;;;8.34;63.15;95239.31;4958114;28;19937;-67
2024/04/05 03:44:05;;;;;;;;;;;;;;;8.87;61.58;95220.94;4957514;28;19926;-67
2024/04/05 03:46:35;;;;;;;;;;;;;;;8.98;61.23;95217.09;4957770;28;19937;-67
2024/04/05 03:49:00;;;;;;;;;;;;;;;8.96;60.96;95211.13;4958236;28;19932;-67
2024/04/05 03:51:25;;;;;;;;;;;;;;;8.77;61.09;95215.03;4957597;28;19929;-67
2024/04/05 03:53:51;;;;;;;;;;;;;;;8.68;61.95;95206.31;4957989;28;20025;-67
2024/04/05 03:56:16;;;;;;;;;;;;;;;7.02;68.38;95216.41;4958614;28;19937;-67
2024/04/05 03:58:41;;;;;;;;;;;;;;;8.24;64.82;95203.25;4957761;28;20404;-67
2024/04/05 04:01:07;;;;;;;;;;;;;;;8.71;61.83;95202.47;4957741;28;19930;-67
2024/04/05 04:03:33;;;;;;;;;;;;;;;8.39;63.31;95213.09;4957137;28;20134;-67
2024/04/05 04:05:59;;;;;;;;;;;;;;;8.27;63.39;95208.19;4955464;28;19922;-67
2024/04/05 04:08:24;;;;;;;;;;;;;;;8.53;62.44;95206.22;4957552;28;20315;-67
2024/04/05 04:10:49;;;;;;;;;;;;;;;9.02;60.88;95204.25;4957968;28;20526;-67
2024/04/05 04:13:15;;;;;;;;;;;;;;;8.63;62.51;95201.53;4957432;28;20004;-67
2024/04/05 04:15:40;;;;;;;;;;;;;;;9.16;60.44;95200.84;4958080;28;19930;-67
2024/04/05 04:18:06;;;;;;;;;;;;;;;9.23;59.81;95200.94;4962414;28;19934;-67
2024/04/05 04:20:31;;;;;;;;;;;;;;;9.35;59.62;95209.28;4957735;28;19933;-67
2024/04/05 04:22:57;;;;;;;;;;;;;;;9.38;58.17;95198.31;4957309;28;19926;-67
2024/04/05 04:25:22;;;;;;;;;;;;;;;9.22;59.73;95203.78;4957351;28;19926;-67
2024/04/05 04:27:48;;;;;;;;;;;;;;;9.40;58.81;95208.75;4957815;28;20029;-67
2024/04/05 04:30:14;;;;;;;;;;;;;;;9.22;58.90;95217.06;4957947;28;20009;-67
2024/04/05 04:32:39;;;;;;;;;;;;;;;9.35;59.16;95208.47;4959783;28;20029;-67
2024/04/05 04:35:05;;;;;;;;;;;;;;;8.76;60.17;95216.03;4960320;28;19922;-67
2024/04/05 04:37:30;;;;;;;;;;;;;;;8.77;61.57;95215.84;4961976;28;20371;-67
2024/04/05 04:39:55;;;;;;;;;;;;;;;8.94;60.19;95211.25;4961618;28;20011;-67
2024/04/05 04:42:20;;;;;;;;;;;;;;;8.56;61.90;95221.78;4960618;28;20392;-67
2024/04/05 04:44:46;;;;;;;;;;;;;;;9.12;60.43;95222.63;4959895;28;19926;-67
2024/04/05 04:47:11;;;;;;;;;;;;;;;9.32;59.22;95221.09;4961132;28;19937;-67
2024/04/05 04:49:36;;;;;;;;;;;;;;;8.02;63.38;95229.50;4961575;28;20781;-67
2024/04/05 04:52:02;;;;;;;;;;;;;;;8.35;63.35;95222.41;4960680;28;20364;-67
2024/04/05 04:54:27;;;;;;;;;;;;;;;8.59;61.96;95225.91;4961743;28;19938;-67
2024/04/05 04:56:53;;;;;;;;;;;;;;;8.75;60.96;95230.31;4958364;28;19934;-67
2024/04/05 04:59:18;;;;;;;;;;;;;;;9.33;59.51;95220.13;4961403;28;19937;-67
2024/04/05 05:01:43;;;;;;;;;;;;;;;9.10;60.66;95222.78;4961336;28;20514;-67
2024/04/05 05:04:08;;;;;;;;;;;;;;;9.23;59.68;95216.88;4960242;28;20052;-67
2024/04/05 05:06:34;;;;;;;;;;;;;;;8.90;60.83;95220.59;4959709;28;19933;-67
2024/04/05 05:08:59;;;;;;;;;;;;;;;9.39;60.01;95215.88;4961188;28;19926;-67
2024/04/05 05:11:25;;;;;;;;;;;;;;;9.50;59.64;95212.00;4960080;28;20295;-67
2024/04/05 05:13:50;;;;;;;;;;;;;;;9.37;59.36;95206.44;4960971;28;19933;-67
2024/04/05 05:16:18;;;;;;;;;;;;;;;9.57;58.93;95196.13;4960372;28;19926;-67
2024/04/05 05:18:43;;;;;;;;;;;;;;;9.41;58.61;95197.09;4960163;28;19961;-67
2024/04/05 05:21:09;;;;;;;;;;;;;;;9.52;57.54;95195.88;4961165;28;19929;-67
2024/04/05 05:23:34;;;;;;;;;;;;;;;9.20;57.33;95190.66;4960268;28;20300;-67
2024/04/05 05:26:02;;;;;;;;;;;;;;;9.63;56.75;95191.91;4959442;28;19933;-67
2024/04/05 05:28:28;;;;;;;;;;;;;;;9.89;54.41;95196.78;4960422;28;19973;-67
2024/04/05 05:30:53;;;;;;;;;;;;;;;10.07;54.61;95207.06;4960290;28;19934;-67
2024/04/05 05:33:18;;;;;;;;;;;;;;;10.15;52.89;95202.66;4959525;28;19922;-67
2024/04/05 05:35:44;;;;;;;;;;;;;;;10.27;54.14;95195.03;4958885;28;20025;-67
2024/04/05 05:38:09;;;;;;;;;;;;;;;10.29;52.24;95191.19;4960532;28;20242;-67
2024/04/05 05:40:34;;;;;;;;;;;;;;;10.35;51.11;95193.09;4959760;28;19922;-67
2024/04/05 05:42:59;;;;;;;;;;;;;;;10.44;51.57;95198.31;4958911;28;20020;-67
2024/04/05 05:45:25;;;;;;;;;;;;;;;10.53;51.73;95212.31;4960585;28;20300;-67
2024/04/05 05:47:53;;;;;;;;;;;;;;;10.40;52.99;95213.00;4960299;28;20036;-67
2024/04/05 05:50:19;;;;;;;;;;;;;;;10.43;52.46;95220.59;4959565;28;20307;-67
2024/04/05 05:52:44;;;;;;;;;;;;;;;10.58;53.82;95232.03;4960379;28;19926;-67
2024/04/05 05:55:09;;;;;;;;;;;;;;;10.53;52.02;95231.78;4959025;28;19933;-67
2024/04/05 05:57:35;;;;;;;;;;;;;;;10.54;51.83;95228.09;4960507;28;20088;-67
2024/04/05 06:00:01;;;;;;;;;;;;;;;10.59;50.21;95209.75;4958223;28;20058;-67
2024/04/05 06:02:26;;;;;;;;;;;;;;;10.64;51.03;95192.38;4959300;28;19926;-67
2024/04/05 06:04:51;;;;;;;;;;;;;;;10.70;50.01;95194.25;4959412;28;19926;-67
2024/04/05 06:07:16;;;;;;;;;;;;;;;10.70;50.96;95178.28;4955863;28;19984;-67
2024/04/05 06:09:50;;;;;;;;;;;;;;;10.79;50.36;95171.84;4959747;28;19961;-67
2024/04/05 06:12:16;;;;;;;;;;;;;;;10.77;50.11;95179.19;4953017;28;20176;-66
2024/04/05 06:14:42;;;;;;;;;;;;;;;10.76;49.79;95193.53;4957053;28;19926;-67
2024/04/05 06:17:07;;;;;;;;;;;;;;;10.42;54.37;95224.28;4959936;28;19929;-66
2024/04/05 06:19:33;;;;;;;;;;;;;;;9.34;57.78;95226.22;4959159;28;19926;-66
2024/04/05 06:21:58;;;;;;;;;;;;;;;10.05;56.45;95224.19;4960126;28;19933;-67
2024/04/05 06:24:24;;;;;;;;;;;;;;;10.18;55.12;95228.91;4959185;28;20560;-66
2024/04/05 06:26:49;;;;;;;;;;;;;;;10.52;54.75;95238.13;4956637;28;19980;-66
2024/04/05 06:29:14;;;;;;;;;;;;;;;10.44;54.95;95244.34;4958381;28;19926;-66
2024/04/05 06:31:39;;;;;;;;;;;;;;;10.08;56.22;95247.78;4959068;28;20013;-66
2024/04/05 06:34:06;;;;;;;;;;;;;;;9.85;57.63;95236.22;4959338;28;20434;-66
2024/04/05 06:36:31;;;;;;;;;;;;;;;10.16;54.25;95230.94;4958211;28;19930;-66
2024/04/05 06:38:56;;;;;;;;;;;;;;;10.13;55.91;95226.78;4956967;28;19933;-66
2024/04/05 06:41:21;;;;;;;;;;;;;;;10.39;55.09;95228.13;4958937;28;20246;-66
2024/04/05 06:43:47;;;;;;;;;;;;;;;10.26;55.25;95234.09;4958471;28;19926;-66
2024/04/05 06:46:12;;;;;;;;;;;;;;;10.55;51.75;95218.28;4959686;28;19930;-66
2024/04/05 06:48:38;;;;;;;;;;;;;;;10.79;54.47;95219.78;4958992;28;19981;-67
2024/04/05 06:51:11;;;;;;;;;;;;;;;10.82;51.33;95223.91;4958550;28;19926;-66
2024/04/05 06:53:36;;;;;;;;;;;;;;;10.87;52.51;95208.16;4958880;28;19972;-66
2024/04/05 06:56:02;;;;;;;;;;;;;;;10.97;52.90;95202.50;4957643;28;19965;-67
2024/04/05 06:58:27;;;;;;;;;;;;;;;11.20;53.58;95207.69;4958986;28;20300;-66
2024/04/05 07:00:52;;;;;;;;;;;;;;;11.26;50.76;95201.56;4958449;28;20206;-66
2024/04/05 07:03:19;;;;;;;;;;;;;;;11.32;52.41;95197.31;4955689;28;19940;-66
2024/04/05 07:05:44;;;;;;;;;;;;;;;11.64;51.70;95202.25;4954745;28;19941;-67
2024/04/05 07:08:09;;;;;;;;;;;;;;;11.86;51.32;95192.34;4958677;28;19930;-67
2024/04/05 07:10:36;;;;;;;;;;;;;;;11.91;50.46;95183.75;4958052;28;20452;-66
2024/04/05 07:13:01;;;;;;;;;;;;;;;11.85;47.32;95171.19;4958176;28;20407;-67
2024/04/05 07:15:26;;;;;;;;;;;;;;;11.89;49.01;95170.63;4959020;28;19937;-66
2024/04/05 07:17:52;;;;;;;;;;;;;;;12.06;49.80;95175.66;4959322;28;20295;-66
2024/04/05 07:20:20;;;;;;;;;;;;;;;11.99;49.13;95177.44;4956882;28;20567;-66
2024/04/05 07:22:46;;;;;;;;;;;;;;;12.06;48.83;95172.13;4957751;28;20430;-66
2024/04/05 07:25:11;;;;;;;;;;;;;;;12.14;46.27;95167.47;4958785;28;19949;-66
2024/04/05 07:27:36;;;;;;;;;;;;;;;12.02;48.17;95153.84;4956495;28;19937;-66
2024/04/05 07:30:02;;;;;;;;;;;;;;;12.23;48.11;95162.78;4958389;28;19926;-66
2024/04/05 07:32:27;;;;;;;;;;;;;;;12.11;50.69;95157.19;4956340;28;20450;-66
2024/04/05 07:34:52;;;;;;;;;;;;;;;12.26;48.58;95169.56;4954651;28;19973;-66
2024/04/05 07:37:18;;;;;;;;;;;;;;;12.22;47.41;95168.31;4967316;28;19933;-66
2024/04/05 07:39:44;;;;;;;;;;;;;;;12.06;48.18;95166.78;4954241;28;20210;-66
2024/04/05 07:42:09;;;;;;;;;;;;;;;10.66;54.61;95177.84;4955367;28;20201;-66
2024/04/05 07:44:35;;;;;;;;;;;;;;;11.44;50.65;95178.13;4957583;28;19988;-66
2024/04/05 07:47:00;;;;;;;;;;;;;;;11.40;52.92;95177.72;4957130;28;20012;-66
2024/04/05 07:49:26;;;;;;;;;;;;;;;11.54;51.66;95173.28;4958693;28;19929;-66
2024/04/05 07:51:51;;;;;;;;;;;;;;;11.52;50.28;95177.97;4956100;28;19981;-66
2024/04/05 07:54:16;;;;;;;;;;;;;;;11.49;51.58;95181.06;4957675;28;20272;-66
2024/04/05 07:56:42;;;;;;;;;;;;;;;11.75;48.18;95185.72;4956765;28;19969;-66
2024/04/05 07:59:08;;;;;;;;;;;;;;;11.69;51.99;95202.50;4957509;28;20233;-66
2024/04/05 08:01:33;;;;;;;;;;;;;;;11.52;52.06;95202.81;4953707;28;19930;-66
2024/04/05 08:04:00;;;;;;;;;;;;;;;11.60;49.34;95195.69;4955609;28;19941;-66
2024/04/05 08:06:25;;;;;;;;;;;;;;;11.43;52.55;95187.16;4959419;28;19926;-66
2024/04/05 08:08:50;;;;;;;;;;;;;;;11.26;51.42;95193.56;4960919;28;20306;-66
2024/04/05 08:11:15;;;;;;;;;;;;;;;11.54;50.60;95189.28;4960412;28;19996;-67
2024/04/05 08:13:41;;;;;;;;;;;;;;;11.74;51.27;95202.75;4962017;28;19945;-66
2024/04/05 08:16:06;;;;;;;;;;;;;;;11.70;49.17;95190.81;4961780;28;20259;-66
2024/04/05 08:18:31;;;;;;;;;;;;;;;11.69;52.12;95185.69;4961289;28;19930;-66
2024/04/05 08:20:57;;;;;;;;;;;;;;;11.64;53.51;95181.78;4957192;28;19926;-67
2024/04/05 08:23:22;;;;;;;;;;;;;;;12.25;50.59;95182.09;4961913;28;19929;-66
2024/04/05 08:25:47;;;;;;;;;;;;;;;12.44;48.35;95163.66;4960324;28;20529;-66
2024/04/05 08:28:12;;;;;;;;;;;;;;;12.59;50.17;95158.19;4961669;28;20360;-67
2024/04/05 08:30:38;;;;;;;;;;;;;;;12.86;47.14;95146.72;4961364;28;20088;-67
2024/04/05 08:33:04;;;;;;;;;;;;;;;13.18;47.83;95154.97;4960940;28;19922;-67
2024/04/05 08:35:29;;;;;;;;;;;;;;;13.35;49.13;95159.88;4959519;28;19932;-67
2024/04/05 08:38:00;;;;;;;;;;;;;;;13.55;48.40;95155.34;4961010;28;19926;-67
2024/04/05 08:40:26;;;;;;;;;;;;;;;13.71;46.60;95155.94;4961695;28;20005;-66
2024/04/05 08:42:51;;;;;;;;;;;;;;;14.07;44.81;95151.94;4959179;28;20462;-66
2024/04/05 08:45:16;;;;;;;;;;;;;;;14.31;44.11;95149.59;4960396;28;19922;-66
2024/04/05 08:47:41;;;;;;;;;;;;;;;14.57;44.93;95144.28;4955006;28;19985;-66
2024/04/05 08:50:08;;;;;;;;;;;;;;;14.55;44.98;95135.66;4955637;28;19922;-66
2024/04/05 08:52:34;;;;;;;;;;;;;;;14.69;44.02;95131.06;4960605;28;20269;-66
2024/04/05 08:54:59;;;;;;;;;;;;;;;;;;4961018;28;19937;-66
2024/04/05 08:57:27;;;;;;;;;;;;;;;15.04;44.17;95132.47;4960877;28;20379;-67
2024/04/05 08:59:52;;;;;;;;;;;;;;;15.20;43.31;95126.56;4959846;28;20285;-67
2024/04/05 09:02:19;;;;;;;;;;;;;;;15.45;45.68;95111.47;4957467;28;20776;-67
2024/04/05 09:04:44;;;;;;;;;;;;;;;15.23;42.89;95107.34;4960351;28;20259;-67
2024/04/05 09:07:09;;;;;;;;;;;;;;;15.33;40.99;95111.41;4959851;28;20214;-66
2024/04/05 09:09:35;;;;;;;;;;;;;;;15.61;44.18;95099.41;4961018;28;20492;-66
2024/04/05 09:12:01;;;;;;;;;;;;;;;15.36;42.03;95103.72;4959809;28;20025;-66
2024/04/05 09:14:26;;;;;;;;;;;;;;;15.35;44.75;95109.31;4961089;28;20391;-66
2024/04/05 09:16:52;;;;;;;;;;;;;;;15.29;43.85;95102.97;4959435;28;19926;-66
2024/04/05 09:19:19;;;;;;;;;;;;;;;15.21;40.23;95109.44;4960103;28;19930;-67
2024/04/05 09:21:44;;;;;;;;;;;;;;;14.82;44.46;95108.75;4961027;28;19997;-67
2024/04/05 09:24:09;;;;;;;;;;;;;;;14.97;44.49;95106.56;4959664;28;20020;-66
2024/04/05 09:26:35;;;;;;;;;;;;;;;15.40;41.70;95104.09;4958862;28;20482;-66
2024/04/05 09:29:03;;;;;;;;;;;;;;;15.13;45.79;95088.25;4959685;28;20391;-66
2024/04/05 09:31:29;;;;;;;;;;;;;;;15.26;40.22;95098.03;4959070;28;19926;-66
2024/04/05 09:34:08;;;;;;;;;;;;;;;15.35;41.64;95101.25;4959622;28;19949;-66
2024/04/05 09:36:33;;;;;;;;;;;;;;;15.35;45.43;95094.06;4959479;28;19926;-66
2024/04/05 09:39:00;;;;;;;;;;;;;;;15.56;43.07;95097.38;4957007;28;20296;-66
2024/04/05 09:41:25;;;;;;;;;;;;;;;14.75;44.93;95102.59;4961158;28;20624;-66
2024/04/05 09:43:50;;;;;;;;;;;;;;;15.16;44.25;95095.06;4958237;28;19926;-66
2024/04/05 09:46:19;;;;;;;;;;;;;;;14.12;46.71;95107.66;4968457;28;19926;-66
2024/04/05 09:48:45;;;;;;;;;;;;;;;15.19;45.13;95098.09;4958551;28;20395;-66
2024/04/05 09:51:13;;;;;;;;;;;;;;;14.27;47.28;95092.16;4959983;28;19926;-66
2024/04/05 09:53:40;;;;;;;;;;;;;;;14.88;45.82;95072.19;4959707;28;19926;-66
2024/04/05 09:56:05;;;;;;;;;;;;;;;15.21;44.14;95069.22;4959721;28;20443;-66
2024/04/05 09:58:31;;;;;;;;;;;;;;;15.18;44.55;95053.59;4960579;28;19926;-66
2024/04/05 10:00:56;;;;;;;;;;;;;;;15.29;42.75;95030.56;4959818;28;19922;-66
2024/04/05 10:03:22;;;;;;;;;;;;;;;15.55;43.48;95041.22;4958997;28;20004;-67
2024/04/05 10:05:48;;;;;;;;;;;;;;;14.84;45.84;95051.22;4958841;28;20141;-66
2024/04/05 10:08:16;;;;;;;;;;;;;;;14.12;46.32;95057.63;4959381;28;19934;-66
2024/04/05 10:10:41;;;;;;;;;;;;;;;15.08;41.90;95059.44;4959953;28;19926;-66
2024/04/05 10:13:16;;;;;;;;;;;;;;;15.78;43.02;95064.75;4959963;28;19932;-66
2024/04/05 10:15:55;;;;;;;;;;;;;;;15.17;43.55;95061.84;4956288;28;19980;-66
2024/04/05 10:18:37;;;;;;;;;;;;;;;13.92;46.08;95068.44;4958536;28;19964;-66
2024/04/05 10:21:04;;;;;;;;;;;;;;;14.84;43.94;95056.56;4957733;28;20064;-66
2024/04/05 10:23:29;;;;;;;;;;;;;;;15.46;41.71;95060.31;4959854;28;19937;-66
2024/04/05 10:25:56;;;;;;;;;;;;;;;14.84;42.05;95059.25;4955219;28;20327;-66
2024/04/05 10:28:21;;;;;;;;;;;;;;;15.34;41.83;95051.38;4959409;28;20305;-66
2024/04/05 10:30:47;;;;;;;;;;;;;;;15.45;40.39;95036.38;4959410;28;20466;-66
2024/04/05 10:33:16;;;;;;;;;;;;;;;15.12;41.85;95048.28;4957798;28;20172;-66
2024/04/05 10:35:41;;;;;;;;;;;;;;;15.09;41.40;95053.03;4956816;28;19956;-66
2024/04/05 10:38:06;;;;;;;;;;;;;;;14.82;42.15;95055.16;4960150;28;19976;-65
2024/04/05 10:40:33;;;;;;;;;;;;;;;14.29;43.29;95060.63;4955931;28;19989;-65
2024/04/05 10:43:06;;;;;;;;;;;;;;;12.77;46.44;95060.59;4954361;28;20556;-66
2024/04/05 10:45:31;;;;;;;;;;;;;;;14.09;42.76;95052.72;4954645;28;20435;-66
2024/04/05 10:47:56;;;;;;;;;;;;;;;12.57;46.54;95063.28;4957778;28;19945;-66
2024/04/05 10:50:22;;;;;;;;;;;;;;;13.94;43.41;95053.81;4957431;28;20419;-66
2024/04/05 10:52:47;;;;;;;;;;;;;;;14.06;43.21;95048.63;4958303;28;20768;-66
2024/04/05 10:55:13;;;;;;;;;;;;;;;14.04;43.16;95039.16;4958905;28;20002;-66
2024/04/05 10:57:38;;;;;;;;;;;;;;;14.58;42.70;95028.06;4959089;28;20029;-66
2024/04/05 11:00:04;;;;;;;;;;;;;;;14.59;42.23;95041.25;4958791;28;20118;-66
2024/04/05 11:02:30;;;;;;;;;;;;;;;13.31;44.82;95025.84;4957761;28;20300;-66
2024/04/05 11:05:10;;;;;;;;;;;;;;;14.03;43.83;95024.13;4959091;28;19929;-66
2024/04/05 11:07:35;;;;;;;;;;;;;;;13.42;45.38;95017.16;4956738;28;19937;-66
2024/04/05 11:10:11;;;;;;;;;;;;;;;14.43;42.94;95026.56;4957951;28;19922;-66
2024/04/05 11:12:38;;;;;;;;;;;;;;;14.00;43.94;95014.66;4957920;28;19995;-66
2024/04/05 11:15:03;;;;;;;;;;;;;;;14.40;43.08;95010.91;4957919;28;20076;-66
2024/04/05 11:17:28;;;;;;;;;;;;;;;13.58;44.32;95020.41;4959679;28;20247;-66
2024/04/05 11:19:54;;;;;;;;;;;;;;;14.07;43.72;95015.44;4957545;28;20678;-66
2024/04/05 11:22:19;;;;;;;;;;;;;;;13.93;43.48;95008.53;4957293;28;19922;-66
2024/04/05 11:24:47;;;;;;;;;;;;;;;13.38;44.75;94994.56;4958199;28;19965;-66
2024/04/05 11:27:18;;;;;;;;;;;;;;;13.33;44.58;94985.53;4955652;28;19926;-66
2024/04/05 11:29:43;;;;;;;;;;;;;;;12.20;45.88;95011.06;4945876;28;19965;-66
2024/04/05 11:32:09;;;;;;;;;;;;;;;12.85;44.99;95009.63;4956706;28;19992;-66
2024/04/05 11:34:34;;;;;;;;;;;;;;;12.23;46.78;95015.19;4957104;28;20026;-66
2024/04/05 11:37:00;;;;;;;;;;;;;;;13.26;44.98;95081.78;4955756;28;20021;-64
2024/04/05 11:39:27;;;;;;;;;;;;;;;12.54;46.16;95112.56;4957707;28;19926;-64
2024/04/05 11:41:52;;;;;;;;;;;;;;;12.32;46.70;95064.69;4956958;28;20627;-64
2024/04/05 11:44:18;;;;;;;;;;;;;;;12.73;46.55;95067.38;4956662;28;20301;-64
2024/04/05 11:46:43;;;;;;;;;;;;;;;12.67;45.92;95053.00;4956427;28;19922;-64
2024/04/05 11:49:12;;;;;;;;;;;;;;;13.75;45.15;95020.75;4957238;28;20020;-64
2024/04/05 11:51:37;;;;;;;;;;;;;;;14.27;44.49;94993.09;4957013;28;19926;-65
2024/04/05 11:54:02;;;;;;;;;;;;;;;14.67;44.33;94986.59;4957346;28;20311;-65
2024/04/05 11:56:27;;;;;;;;;;;;;;;14.85;41.90;95009.13;4957612;28;19933;-64
2024/04/05 11:58:53;;;;;;;;;;;;;;;14.88;43.48;95035.50;4956938;28;20037;-64
2024/04/05 12:01:18;;;;;;;;;;;;;;;15.36;42.36;95036.69;4956580;28;20069;-65
2024/04/05 12:03:44;;;;;;;;;;;;;;;15.50;42.71;95036.53;4955998;28;19930;-65
2024/04/05 12:06:12;;;;;;;;;;;;;;;15.90;40.75;95026.41;4956990;28;19984;-65
2024/04/05 12:08:37;;;;;;;;;;;;;;;14.80;42.41;95041.97;4958003;28;19930;-64
2024/04/05 12:11:02;;;;;;;;;;;;;;;14.83;44.04;95040.69;4956243;28;20222;-64
2024/04/05 12:13:28;;;;;;;;;;;;;;;15.55;42.88;95049.28;4957416;28;20045;-65
2024/04/05 12:15:53;;;;;;;;;;;;;;;15.29;42.60;95048.50;4957690;28;19933;-64
2024/04/05 12:18:20;;;;;;;;;;;;;;;14.74;43.69;95033.97;4957719;28;19965;-64
2024/04/05 12:20:46;;;;;;;;;;;;;;;12.40;50.95;95043.13;4955652;28;20273;-64
2024/04/05 12:23:11;;;;;;;;;;;;;;;12.61;50.21;95045.84;4956308;28;19941;-64
2024/04/05 12:25:36;;;;;;;;;;;;;;;14.58;45.43;95044.97;4956289;28;20013;-64
2024/04/05 12:28:02;;;;;;;;;;;;;;;14.90;43.53;95044.16;4952143;28;20197;-64
2024/04/05 12:30:27;;;;;;;;;;;;;;;15.37;43.98;95045.56;4956633;28;20434;-64
2024/04/05 12:32:52;;;;;;;;;;;;;;;15.08;44.08;95043.38;4956812;28;20017;-64
2024/04/05 12:35:18;;;;;;;;;;;;;;;14.36;45.27;95036.50;4956118;28;19960;-65
2024/04/05 12:37:43;;;;;;;;;;;;;;;14.89;44.65;95042.50;4957723;28;19966;-64
2024/04/05 12:40:17;;;;;;;;;;;;;;;14.62;45.31;95044.56;4957555;28;20311;-64
2024/04/05 12:42:43;;;;;;;;;;;;;;;15.02;42.58;95054.16;4954184;28;19929;-64
2024/04/05 12:45:08;;;;;;;;;;;;;;;14.29;46.07;95057.13;4953763;28;19926;-64